sensor_id;sensor_type;location;lat;lon;timestamp;P1;durP1;ratioP1;P2;durP2;ratioP2
7527;SDS011;3805;49.006;8.514;2023-04-03T00:00:05;2.97;;;2.77;;
7527;SDS011;3805;49.006;8.514;2023-04-03T00:02:55;3.00;;;2.80;;
7527;SDS011;3805;49.006;8.514;2023-04-03T00:05:43;4.43;;;3.43;;
7527;SDS011;3805;49.006;8.514;2023-04-03T00:08:32;3.20;;;3.00;;
7527;SDS011;3805;49.006;8.514;2023-04-03T00:11:20;3.73;;;3.50;;
7527;SDS011;3805;49.006;8.514;2023-04-03T00:14:09;4.67;;;3.50;;
7527;SDS011;3805;49.006;8.514;2023-04-03T00:16:59;4.03;;;3.17;;
7527;SDS011;3805;49.006;8.514;2023-04-03T00:19:48;3.23;;;2.97;;
7527;SDS011;3805;49.006;8.514;2023-04-03T00:22:36;5.40;;;3.40;;
7527;SDS011;3805;49.006;8.514;2023-04-03T00:25:25;3.67;;;3.33;;
7527;SDS011;3805;49.006;8.514;2023-04-03T00:28:13;3.13;;;2.93;;
7527;SDS011;3805;49.006;8.514;2023-04-03T00:31:02;3.03;;;2.83;;
7527;SDS011;3805;49.006;8.514;2023-04-03T00:33:53;7.57;;;3.60;;
7527;SDS011;3805;49.006;8.514;2023-04-03T00:36:41;2.70;;;2.50;;
7527;SDS011;3805;49.006;8.514;2023-04-03T00:39:30;3.67;;;3.37;;
7527;SDS011;3805;49.006;8.514;2023-04-03T00:42:19;3.40;;;3.20;;
7527;SDS011;3805;49.006;8.514;2023-04-03T00:45:24;3.10;;;2.90;;
7527;SDS011;3805;49.006;8.514;2023-04-03T00:48:15;4.00;;;3.60;;
7527;SDS011;3805;49.006;8.514;2023-04-03T00:51:08;3.10;;;2.80;;
7527;SDS011;3805;49.006;8.514;2023-04-03T00:54:00;2.80;;;2.60;;
7527;SDS011;3805;49.006;8.514;2023-04-03T00:56:51;3.30;;;3.00;;
7527;SDS011;3805;49.006;8.514;2023-04-03T00:59:43;3.00;;;2.80;;
7527;SDS011;3805;49.006;8.514;2023-04-03T01:02:33;3.20;;;3.00;;
7527;SDS011;3805;49.006;8.514;2023-04-03T01:05:22;3.60;;;2.83;;
7527;SDS011;3805;49.006;8.514;2023-04-03T01:08:12;3.67;;;3.37;;
7527;SDS011;3805;49.006;8.514;2023-04-03T01:11:00;3.07;;;2.87;;
7527;SDS011;3805;49.006;8.514;2023-04-03T01:13:49;2.93;;;2.60;;
7527;SDS011;3805;49.006;8.514;2023-04-03T01:16:37;3.30;;;3.10;;
7527;SDS011;3805;49.006;8.514;2023-04-03T01:19:26;2.90;;;2.70;;
7527;SDS011;3805;49.006;8.514;2023-04-03T01:22:15;3.07;;;2.87;;
7527;SDS011;3805;49.006;8.514;2023-04-03T01:25:09;3.10;;;2.90;;
7527;SDS011;3805;49.006;8.514;2023-04-03T01:27:57;3.30;;;3.10;;
7527;SDS011;3805;49.006;8.514;2023-04-03T01:30:47;3.53;;;3.23;;
7527;SDS011;3805;49.006;8.514;2023-04-03T01:33:40;4.33;;;2.90;;
7527;SDS011;3805;49.006;8.514;2023-04-03T01:36:29;3.00;;;2.80;;
7527;SDS011;3805;49.006;8.514;2023-04-03T01:39:18;3.03;;;2.83;;
7527;SDS011;3805;49.006;8.514;2023-04-03T01:42:07;4.03;;;3.47;;
7527;SDS011;3805;49.006;8.514;2023-04-03T01:44:56;3.90;;;3.50;;
7527;SDS011;3805;49.006;8.514;2023-04-03T01:47:44;4.60;;;3.23;;
7527;SDS011;3805;49.006;8.514;2023-04-03T01:50:34;3.17;;;2.87;;
7527;SDS011;3805;49.006;8.514;2023-04-03T01:53:23;5.47;;;3.30;;
7527;SDS011;3805;49.006;8.514;2023-04-03T01:56:12;3.30;;;2.73;;
7527;SDS011;3805;49.006;8.514;2023-04-03T01:59:01;3.67;;;3.20;;
7527;SDS011;3805;49.006;8.514;2023-04-03T02:01:49;3.17;;;2.90;;
7527;SDS011;3805;49.006;8.514;2023-04-03T02:04:38;3.37;;;3.13;;
7527;SDS011;3805;49.006;8.514;2023-04-03T02:07:28;3.50;;;3.30;;
7527;SDS011;3805;49.006;8.514;2023-04-03T02:10:16;3.20;;;3.00;;
7527;SDS011;3805;49.006;8.514;2023-04-03T02:13:05;5.20;;;3.53;;
7527;SDS011;3805;49.006;8.514;2023-04-03T02:15:53;3.53;;;3.23;;
7527;SDS011;3805;49.006;8.514;2023-04-03T02:18:42;3.57;;;3.37;;
7527;SDS011;3805;49.006;8.514;2023-04-03T02:21:31;3.67;;;3.07;;
7527;SDS011;3805;49.006;8.514;2023-04-03T02:24:21;3.40;;;3.20;;
7527;SDS011;3805;49.006;8.514;2023-04-03T02:27:10;3.97;;;3.67;;
7527;SDS011;3805;49.006;8.514;2023-04-03T02:29:59;3.67;;;3.47;;
7527;SDS011;3805;49.006;8.514;2023-04-03T02:32:47;3.70;;;3.40;;
7527;SDS011;3805;49.006;8.514;2023-04-03T02:35:36;3.37;;;3.03;;
7527;SDS011;3805;49.006;8.514;2023-04-03T02:38:25;3.90;;;3.60;;
7527;SDS011;3805;49.006;8.514;2023-04-03T02:41:15;4.23;;;3.40;;
7527;SDS011;3805;49.006;8.514;2023-04-03T02:44:05;5.50;;;3.20;;
7527;SDS011;3805;49.006;8.514;2023-04-03T02:46:54;3.43;;;3.23;;
7527;SDS011;3805;49.006;8.514;2023-04-03T02:49:42;3.53;;;3.23;;
7527;SDS011;3805;49.006;8.514;2023-04-03T02:52:33;3.60;;;3.20;;
7527;SDS011;3805;49.006;8.514;2023-04-03T02:55:21;4.13;;;3.83;;
7527;SDS011;3805;49.006;8.514;2023-04-03T02:58:11;3.57;;;3.27;;
7527;SDS011;3805;49.006;8.514;2023-04-03T03:01:00;3.13;;;2.83;;
7527;SDS011;3805;49.006;8.514;2023-04-03T03:03:48;3.90;;;3.50;;
7527;SDS011;3805;49.006;8.514;2023-04-03T03:06:37;4.67;;;3.87;;
7527;SDS011;3805;49.006;8.514;2023-04-03T03:09:25;3.47;;;3.17;;
7527;SDS011;3805;49.006;8.514;2023-04-03T03:12:14;3.30;;;3.10;;
7527;SDS011;3805;49.006;8.514;2023-04-03T03:15:04;3.50;;;3.20;;
7527;SDS011;3805;49.006;8.514;2023-04-03T03:17:54;4.00;;;3.70;;
7527;SDS011;3805;49.006;8.514;2023-04-03T03:20:42;3.87;;;3.50;;
7527;SDS011;3805;49.006;8.514;2023-04-03T03:23:31;3.60;;;3.40;;
7527;SDS011;3805;49.006;8.514;2023-04-03T03:26:20;4.20;;;3.80;;
7527;SDS011;3805;49.006;8.514;2023-04-03T03:29:08;4.47;;;4.10;;
7527;SDS011;3805;49.006;8.514;2023-04-03T03:31:58;3.60;;;3.30;;
7527;SDS011;3805;49.006;8.514;2023-04-03T03:34:47;4.03;;;3.60;;
7527;SDS011;3805;49.006;8.514;2023-04-03T03:37:35;4.10;;;3.73;;
7527;SDS011;3805;49.006;8.514;2023-04-03T03:40:24;4.00;;;3.70;;
7527;SDS011;3805;49.006;8.514;2023-04-03T03:43:13;3.83;;;3.53;;
7527;SDS011;3805;49.006;8.514;2023-04-03T03:46:01;4.00;;;3.67;;
7527;SDS011;3805;49.006;8.514;2023-04-03T03:48:51;4.00;;;3.70;;
7527;SDS011;3805;49.006;8.514;2023-04-03T03:51:40;4.50;;;4.00;;
7527;SDS011;3805;49.006;8.514;2023-04-03T03:54:29;4.17;;;3.87;;
7527;SDS011;3805;49.006;8.514;2023-04-03T03:57:17;3.67;;;3.37;;
7527;SDS011;3805;49.006;8.514;2023-04-03T04:00:06;3.90;;;3.60;;
7527;SDS011;3805;49.006;8.514;2023-04-03T04:02:55;4.87;;;3.50;;
7527;SDS011;3805;49.006;8.514;2023-04-03T04:05:47;4.60;;;4.20;;
7527;SDS011;3805;49.006;8.514;2023-04-03T04:08:35;4.90;;;4.60;;
7527;SDS011;3805;49.006;8.514;2023-04-03T04:11:24;3.90;;;3.60;;
7527;SDS011;3805;49.006;8.514;2023-04-03T04:14:14;4.70;;;4.40;;
7527;SDS011;3805;49.006;8.514;2023-04-03T04:17:03;3.90;;;3.60;;
7527;SDS011;3805;49.006;8.514;2023-04-03T04:19:52;5.93;;;4.23;;
7527;SDS011;3805;49.006;8.514;2023-04-03T04:22:41;4.37;;;3.50;;
7527;SDS011;3805;49.006;8.514;2023-04-03T04:25:30;6.23;;;4.00;;
7527;SDS011;3805;49.006;8.514;2023-04-03T04:28:19;7.83;;;5.70;;
7527;SDS011;3805;49.006;8.514;2023-04-03T04:31:08;4.33;;;4.00;;
7527;SDS011;3805;49.006;8.514;2023-04-03T04:33:56;4.30;;;3.47;;
7527;SDS011;3805;49.006;8.514;2023-04-03T04:36:45;4.30;;;3.77;;
7527;SDS011;3805;49.006;8.514;2023-04-03T04:39:35;6.40;;;4.23;;
7527;SDS011;3805;49.006;8.514;2023-04-03T04:42:23;4.90;;;4.30;;
7527;SDS011;3805;49.006;8.514;2023-04-03T04:45:12;4.17;;;3.87;;
7527;SDS011;3805;49.006;8.514;2023-04-03T04:48:02;3.73;;;3.27;;
7527;SDS011;3805;49.006;8.514;2023-04-03T04:50:51;4.70;;;3.97;;
7527;SDS011;3805;49.006;8.514;2023-04-03T04:53:39;4.57;;;4.17;;
7527;SDS011;3805;49.006;8.514;2023-04-03T04:56:29;4.47;;;3.83;;
7527;SDS011;3805;49.006;8.514;2023-04-03T04:59:18;4.17;;;3.87;;
7527;SDS011;3805;49.006;8.514;2023-04-03T05:02:08;4.73;;;3.93;;
7527;SDS011;3805;49.006;8.514;2023-04-03T05:04:56;4.13;;;3.90;;
7527;SDS011;3805;49.006;8.514;2023-04-03T05:07:45;3.83;;;3.47;;
7527;SDS011;3805;49.006;8.514;2023-04-03T05:10:33;4.33;;;3.93;;
7527;SDS011;3805;49.006;8.514;2023-04-03T05:13:23;3.63;;;3.33;;
7527;SDS011;3805;49.006;8.514;2023-04-03T05:16:12;4.80;;;4.40;;
7527;SDS011;3805;49.006;8.514;2023-04-03T05:19:01;3.83;;;3.53;;
7527;SDS011;3805;49.006;8.514;2023-04-03T05:21:49;4.33;;;3.90;;
7527;SDS011;3805;49.006;8.514;2023-04-03T05:24:38;4.43;;;4.13;;
7527;SDS011;3805;49.006;8.514;2023-04-03T05:27:26;3.83;;;3.53;;
7527;SDS011;3805;49.006;8.514;2023-04-03T05:30:17;3.90;;;3.70;;
7527;SDS011;3805;49.006;8.514;2023-04-03T05:33:05;4.57;;;4.27;;
7527;SDS011;3805;49.006;8.514;2023-04-03T05:35:54;4.37;;;4.03;;
7527;SDS011;3805;49.006;8.514;2023-04-03T05:38:43;3.63;;;3.33;;
7527;SDS011;3805;49.006;8.514;2023-04-03T05:41:31;4.77;;;3.80;;
7527;SDS011;3805;49.006;8.514;2023-04-03T05:44:20;4.27;;;3.97;;
7527;SDS011;3805;49.006;8.514;2023-04-03T05:47:10;3.93;;;3.63;;
7527;SDS011;3805;49.006;8.514;2023-04-03T05:49:58;4.20;;;3.90;;
7527;SDS011;3805;49.006;8.514;2023-04-03T05:52:48;3.60;;;3.40;;
7527;SDS011;3805;49.006;8.514;2023-04-03T05:55:37;5.10;;;4.40;;
7527;SDS011;3805;49.006;8.514;2023-04-03T05:58:26;4.07;;;3.77;;
7527;SDS011;3805;49.006;8.514;2023-04-03T06:01:14;4.00;;;3.60;;
7527;SDS011;3805;49.006;8.514;2023-04-03T06:04:04;3.87;;;3.53;;
7527;SDS011;3805;49.006;8.514;2023-04-03T06:06:56;4.33;;;4.03;;
7527;SDS011;3805;49.006;8.514;2023-04-03T06:09:45;4.80;;;3.90;;
7527;SDS011;3805;49.006;8.514;2023-04-03T06:12:34;4.27;;;3.90;;
7527;SDS011;3805;49.006;8.514;2023-04-03T06:15:22;5.70;;;3.83;;
7527;SDS011;3805;49.006;8.514;2023-04-03T06:18:11;4.80;;;4.50;;
7527;SDS011;3805;49.006;8.514;2023-04-03T06:21:01;5.07;;;4.70;;
7527;SDS011;3805;49.006;8.514;2023-04-03T06:23:51;4.73;;;4.33;;
7527;SDS011;3805;49.006;8.514;2023-04-03T06:26:40;5.30;;;4.80;;
7527;SDS011;3805;49.006;8.514;2023-04-03T06:29:29;4.93;;;4.50;;
7527;SDS011;3805;49.006;8.514;2023-04-03T06:32:17;4.87;;;4.37;;
7527;SDS011;3805;49.006;8.514;2023-04-03T06:35:06;4.90;;;4.50;;
7527;SDS011;3805;49.006;8.514;2023-04-03T06:37:57;4.80;;;4.30;;
7527;SDS011;3805;49.006;8.514;2023-04-03T06:40:46;4.83;;;4.43;;
7527;SDS011;3805;49.006;8.514;2023-04-03T06:43:34;5.43;;;4.70;;
7527;SDS011;3805;49.006;8.514;2023-04-03T06:46:23;4.93;;;4.50;;
7527;SDS011;3805;49.006;8.514;2023-04-03T06:49:12;5.73;;;4.20;;
7527;SDS011;3805;49.006;8.514;2023-04-03T06:52:02;4.70;;;4.40;;
7527;SDS011;3805;49.006;8.514;2023-04-03T06:54:53;4.87;;;4.47;;
7527;SDS011;3805;49.006;8.514;2023-04-03T06:57:44;5.13;;;4.63;;
7527;SDS011;3805;49.006;8.514;2023-04-03T07:00:33;5.10;;;4.70;;
7527;SDS011;3805;49.006;8.514;2023-04-03T07:03:21;5.37;;;4.97;;
7527;SDS011;3805;49.006;8.514;2023-04-03T07:06:11;4.90;;;4.50;;
7527;SDS011;3805;49.006;8.514;2023-04-03T07:09:00;5.43;;;4.90;;
7527;SDS011;3805;49.006;8.514;2023-04-03T07:11:51;5.40;;;4.90;;
7527;SDS011;3805;49.006;8.514;2023-04-03T07:14:39;5.00;;;4.60;;
7527;SDS011;3805;49.006;8.514;2023-04-03T07:17:28;5.30;;;4.80;;
7527;SDS011;3805;49.006;8.514;2023-04-03T07:20:17;5.43;;;4.93;;
7527;SDS011;3805;49.006;8.514;2023-04-03T07:23:06;5.83;;;5.27;;
7527;SDS011;3805;49.006;8.514;2023-04-03T07:25:54;5.40;;;4.90;;
7527;SDS011;3805;49.006;8.514;2023-04-03T07:28:44;7.63;;;5.90;;
7527;SDS011;3805;49.006;8.514;2023-04-03T07:31:34;5.23;;;4.90;;
7527;SDS011;3805;49.006;8.514;2023-04-03T07:34:23;5.20;;;4.80;;
7527;SDS011;3805;49.006;8.514;2023-04-03T07:37:11;5.00;;;4.53;;
7527;SDS011;3805;49.006;8.514;2023-04-03T07:40:00;7.77;;;4.87;;
7527;SDS011;3805;49.006;8.514;2023-04-03T07:42:50;7.83;;;4.30;;
7527;SDS011;3805;49.006;8.514;2023-04-03T07:45:40;4.50;;;4.10;;
7527;SDS011;3805;49.006;8.514;2023-04-03T07:48:30;5.07;;;4.60;;
7527;SDS011;3805;49.006;8.514;2023-04-03T07:51:18;4.80;;;4.50;;
7527;SDS011;3805;49.006;8.514;2023-04-03T07:54:07;5.97;;;5.47;;
7527;SDS011;3805;49.006;8.514;2023-04-03T07:56:55;5.23;;;4.50;;
7527;SDS011;3805;49.006;8.514;2023-04-03T07:59:44;19.30;;;5.50;;
7527;SDS011;3805;49.006;8.514;2023-04-03T08:02:34;4.70;;;4.40;;
7527;SDS011;3805;49.006;8.514;2023-04-03T08:05:24;5.53;;;5.03;;
7527;SDS011;3805;49.006;8.514;2023-04-03T08:08:13;6.73;;;4.80;;
7527;SDS011;3805;49.006;8.514;2023-04-03T08:11:06;5.67;;;5.23;;
7527;SDS011;3805;49.006;8.514;2023-04-03T08:13:55;5.20;;;4.70;;
7527;SDS011;3805;49.006;8.514;2023-04-03T08:16:44;5.13;;;4.70;;
7527;SDS011;3805;49.006;8.514;2023-04-03T08:19:34;4.63;;;4.10;;
7527;SDS011;3805;49.006;8.514;2023-04-03T08:22:23;4.63;;;4.23;;
7527;SDS011;3805;49.006;8.514;2023-04-03T08:25:12;6.00;;;4.37;;
7527;SDS011;3805;49.006;8.514;2023-04-03T08:28:01;6.70;;;4.53;;
7527;SDS011;3805;49.006;8.514;2023-04-03T08:30:50;5.63;;;4.60;;
7527;SDS011;3805;49.006;8.514;2023-04-03T08:33:39;4.30;;;4.00;;
7527;SDS011;3805;49.006;8.514;2023-04-03T08:36:29;4.50;;;4.20;;
7527;SDS011;3805;49.006;8.514;2023-04-03T08:39:18;5.10;;;4.60;;
7527;SDS011;3805;49.006;8.514;2023-04-03T08:42:11;4.83;;;4.43;;
7527;SDS011;3805;49.006;8.514;2023-04-03T08:45:05;4.20;;;3.90;;
7527;SDS011;3805;49.006;8.514;2023-04-03T08:47:59;6.57;;;5.27;;
7527;SDS011;3805;49.006;8.514;2023-04-03T08:50:50;5.07;;;4.57;;
7527;SDS011;3805;49.006;8.514;2023-04-03T08:53:43;5.13;;;4.10;;
7527;SDS011;3805;49.006;8.514;2023-04-03T08:56:37;5.57;;;4.37;;
7527;SDS011;3805;49.006;8.514;2023-04-03T08:59:28;4.80;;;4.30;;
7527;SDS011;3805;49.006;8.514;2023-04-03T09:02:23;4.10;;;3.80;;
7527;SDS011;3805;49.006;8.514;2023-04-03T09:05:15;6.67;;;4.13;;
7527;SDS011;3805;49.006;8.514;2023-04-03T09:08:07;5.83;;;4.43;;
7527;SDS011;3805;49.006;8.514;2023-04-03T09:11:07;5.50;;;4.13;;
7527;SDS011;3805;49.006;8.514;2023-04-03T09:14:01;5.40;;;4.37;;
7527;SDS011;3805;49.006;8.514;2023-04-03T09:16:52;5.47;;;3.57;;
7527;SDS011;3805;49.006;8.514;2023-04-03T09:19:46;6.40;;;4.40;;
7527;SDS011;3805;49.006;8.514;2023-04-03T09:22:41;7.00;;;3.90;;
7527;SDS011;3805;49.006;8.514;2023-04-03T09:25:38;3.83;;;3.43;;
7527;SDS011;3805;49.006;8.514;2023-04-03T09:28:28;3.73;;;3.50;;
7527;SDS011;3805;49.006;8.514;2023-04-03T09:31:29;4.00;;;3.50;;
7527;SDS011;3805;49.006;8.514;2023-04-03T09:34:24;5.10;;;3.20;;
7527;SDS011;3805;49.006;8.514;2023-04-03T09:37:33;4.67;;;3.30;;
7527;SDS011;3805;49.006;8.514;2023-04-03T09:40:33;6.40;;;3.80;;
7527;SDS011;3805;49.006;8.514;2023-04-03T09:43:25;3.93;;;3.63;;
7527;SDS011;3805;49.006;8.514;2023-04-03T09:46:17;3.60;;;3.30;;
7527;SDS011;3805;49.006;8.514;2023-04-03T09:49:10;2.90;;;2.70;;
7527;SDS011;3805;49.006;8.514;2023-04-03T09:52:05;4.23;;;2.83;;
7527;SDS011;3805;49.006;8.514;2023-04-03T09:55:10;3.43;;;3.23;;
7527;SDS011;3805;49.006;8.514;2023-04-03T09:58:02;4.13;;;3.83;;
7527;SDS011;3805;49.006;8.514;2023-04-03T10:00:56;3.20;;;2.73;;
7527;SDS011;3805;49.006;8.514;2023-04-03T10:03:47;4.77;;;3.20;;
7527;SDS011;3805;49.006;8.514;2023-04-03T10:06:55;3.23;;;3.03;;
7527;SDS011;3805;49.006;8.514;2023-04-03T10:09:43;3.27;;;2.80;;
7527;SDS011;3805;49.006;8.514;2023-04-03T10:12:43;9.10;;;3.20;;
7527;SDS011;3805;49.006;8.514;2023-04-03T10:15:32;3.50;;;3.20;;
7527;SDS011;3805;49.006;8.514;2023-04-03T10:18:27;4.83;;;3.50;;
7527;SDS011;3805;49.006;8.514;2023-04-03T10:21:29;4.03;;;2.70;;
7527;SDS011;3805;49.006;8.514;2023-04-03T10:24:23;4.40;;;2.77;;
7527;SDS011;3805;49.006;8.514;2023-04-03T10:27:16;3.00;;;2.80;;
7527;SDS011;3805;49.006;8.514;2023-04-03T10:30:09;3.63;;;3.33;;
7527;SDS011;3805;49.006;8.514;2023-04-03T10:33:13;3.70;;;3.40;;
7527;SDS011;3805;49.006;8.514;2023-04-03T10:36:11;2.80;;;2.60;;
7527;SDS011;3805;49.006;8.514;2023-04-03T10:39:08;3.33;;;2.83;;
7527;SDS011;3805;49.006;8.514;2023-04-03T10:42:04;2.83;;;2.60;;
7527;SDS011;3805;49.006;8.514;2023-04-03T10:45:08;3.30;;;2.37;;
7527;SDS011;3805;49.006;8.514;2023-04-03T10:48:07;3.10;;;2.80;;
7527;SDS011;3805;49.006;8.514;2023-04-03T10:51:00;3.27;;;2.77;;
7527;SDS011;3805;49.006;8.514;2023-04-03T10:53:55;2.80;;;2.43;;
7527;SDS011;3805;49.006;8.514;2023-04-03T10:56:47;2.40;;;2.20;;
7527;SDS011;3805;49.006;8.514;2023-04-03T10:59:47;3.37;;;2.30;;
7527;SDS011;3805;49.006;8.514;2023-04-03T11:02:39;3.80;;;3.50;;
7527;SDS011;3805;49.006;8.514;2023-04-03T11:05:31;3.83;;;3.20;;
7527;SDS011;3805;49.006;8.514;2023-04-03T11:08:27;2.73;;;2.47;;
7527;SDS011;3805;49.006;8.514;2023-04-03T11:11:19;4.37;;;3.27;;
7527;SDS011;3805;49.006;8.514;2023-04-03T11:14:13;2.60;;;2.40;;
7527;SDS011;3805;49.006;8.514;2023-04-03T11:17:05;2.90;;;2.70;;
7527;SDS011;3805;49.006;8.514;2023-04-03T11:20:01;3.83;;;2.80;;
7527;SDS011;3805;49.006;8.514;2023-04-03T11:22:56;2.80;;;2.50;;
7527;SDS011;3805;49.006;8.514;2023-04-03T11:25:46;3.30;;;3.00;;
7527;SDS011;3805;49.006;8.514;2023-04-03T11:28:39;2.93;;;2.73;;
7527;SDS011;3805;49.006;8.514;2023-04-03T11:31:36;2.80;;;2.60;;
7527;SDS011;3805;49.006;8.514;2023-04-03T11:34:30;3.30;;;3.00;;
7527;SDS011;3805;49.006;8.514;2023-04-03T11:37:25;3.50;;;2.80;;
7527;SDS011;3805;49.006;8.514;2023-04-03T11:40:19;3.27;;;2.97;;
7527;SDS011;3805;49.006;8.514;2023-04-03T11:43:17;4.67;;;3.23;;
7527;SDS011;3805;49.006;8.514;2023-04-03T11:46:12;3.57;;;3.17;;
7527;SDS011;3805;49.006;8.514;2023-04-03T11:49:04;8.10;;;3.47;;
7527;SDS011;3805;49.006;8.514;2023-04-03T11:51:54;3.53;;;3.20;;
7527;SDS011;3805;49.006;8.514;2023-04-03T11:54:47;8.43;;;3.53;;
7527;SDS011;3805;49.006;8.514;2023-04-03T11:57:49;6.13;;;3.23;;
7527;SDS011;3805;49.006;8.514;2023-04-03T12:00:58;2.73;;;2.53;;
7527;SDS011;3805;49.006;8.514;2023-04-03T12:04:03;4.20;;;3.10;;
7527;SDS011;3805;49.006;8.514;2023-04-03T12:10:14;3.47;;;3.07;;
7527;SDS011;3805;49.006;8.514;2023-04-03T12:13:18;3.47;;;3.17;;
7527;SDS011;3805;49.006;8.514;2023-04-03T12:16:07;3.30;;;2.83;;
7527;SDS011;3805;49.006;8.514;2023-04-03T12:22:29;11.43;;;3.40;;
7527;SDS011;3805;49.006;8.514;2023-04-03T12:28:31;2.80;;;2.60;;
7527;SDS011;3805;49.006;8.514;2023-04-03T12:31:25;3.27;;;2.97;;
7527;SDS011;3805;49.006;8.514;2023-04-03T12:34:35;13.33;;;4.53;;
7527;SDS011;3805;49.006;8.514;2023-04-03T12:37:39;10.43;;;3.50;;
7527;SDS011;3805;49.006;8.514;2023-04-03T12:40:33;4.97;;;3.27;;
7527;SDS011;3805;49.006;8.514;2023-04-03T12:43:30;4.00;;;2.83;;
7527;SDS011;3805;49.006;8.514;2023-04-03T12:46:26;6.47;;;3.00;;
7527;SDS011;3805;49.006;8.514;2023-04-03T12:52:30;3.03;;;2.83;;
7527;SDS011;3805;49.006;8.514;2023-04-03T12:55:21;4.70;;;2.80;;
7527;SDS011;3805;49.006;8.514;2023-04-03T12:58:14;3.43;;;3.13;;
7527;SDS011;3805;49.006;8.514;2023-04-03T13:01:09;3.43;;;2.73;;
7527;SDS011;3805;49.006;8.514;2023-04-03T13:03:59;3.23;;;2.93;;
7527;SDS011;3805;49.006;8.514;2023-04-03T13:06:49;4.10;;;3.40;;
7527;SDS011;3805;49.006;8.514;2023-04-03T13:09:39;3.20;;;2.90;;
7527;SDS011;3805;49.006;8.514;2023-04-03T13:12:28;3.33;;;3.03;;
7527;SDS011;3805;49.006;8.514;2023-04-03T13:15:19;3.33;;;2.77;;
7527;SDS011;3805;49.006;8.514;2023-04-03T13:18:21;3.53;;;3.23;;
7527;SDS011;3805;49.006;8.514;2023-04-03T13:21:15;3.70;;;3.40;;
7527;SDS011;3805;49.006;8.514;2023-04-03T13:24:07;4.30;;;3.27;;
7527;SDS011;3805;49.006;8.514;2023-04-03T13:27:02;3.50;;;3.20;;
7527;SDS011;3805;49.006;8.514;2023-04-03T13:29:52;4.90;;;3.10;;
7527;SDS011;3805;49.006;8.514;2023-04-03T13:32:42;2.80;;;2.60;;
7527;SDS011;3805;49.006;8.514;2023-04-03T13:35:33;2.90;;;2.70;;
7527;SDS011;3805;49.006;8.514;2023-04-03T13:38:24;4.97;;;2.90;;
7527;SDS011;3805;49.006;8.514;2023-04-03T13:41:23;3.20;;;2.50;;
7527;SDS011;3805;49.006;8.514;2023-04-03T13:44:16;3.17;;;2.70;;
7527;SDS011;3805;49.006;8.514;2023-04-03T13:47:15;3.60;;;3.30;;
7527;SDS011;3805;49.006;8.514;2023-04-03T13:50:19;3.13;;;2.83;;
7527;SDS011;3805;49.006;8.514;2023-04-03T13:53:11;3.70;;;3.20;;
7527;SDS011;3805;49.006;8.514;2023-04-03T13:56:07;5.07;;;3.13;;
7527;SDS011;3805;49.006;8.514;2023-04-03T13:59:02;4.40;;;3.73;;
7527;SDS011;3805;49.006;8.514;2023-04-03T14:01:55;4.40;;;3.53;;
7527;SDS011;3805;49.006;8.514;2023-04-03T14:04:59;5.43;;;2.93;;
7527;SDS011;3805;49.006;8.514;2023-04-03T14:07:50;3.40;;;2.73;;
7527;SDS011;3805;49.006;8.514;2023-04-03T14:10:39;3.77;;;2.87;;
7527;SDS011;3805;49.006;8.514;2023-04-03T14:13:29;2.77;;;2.47;;
7527;SDS011;3805;49.006;8.514;2023-04-03T14:16:20;3.43;;;3.13;;
7527;SDS011;3805;49.006;8.514;2023-04-03T14:19:14;3.50;;;2.80;;
7527;SDS011;3805;49.006;8.514;2023-04-03T14:22:10;4.53;;;2.70;;
7527;SDS011;3805;49.006;8.514;2023-04-03T14:25:02;2.90;;;2.70;;
7527;SDS011;3805;49.006;8.514;2023-04-03T14:27:52;3.13;;;2.90;;
7527;SDS011;3805;49.006;8.514;2023-04-03T14:30:40;4.00;;;2.97;;
7527;SDS011;3805;49.006;8.514;2023-04-03T14:33:30;4.10;;;3.07;;
7527;SDS011;3805;49.006;8.514;2023-04-03T14:36:22;3.03;;;2.83;;
7527;SDS011;3805;49.006;8.514;2023-04-03T14:39:16;4.53;;;2.73;;
7527;SDS011;3805;49.006;8.514;2023-04-03T14:42:05;5.00;;;3.00;;
7527;SDS011;3805;49.006;8.514;2023-04-03T14:44:54;5.83;;;3.20;;
7527;SDS011;3805;49.006;8.514;2023-04-03T14:47:44;3.33;;;3.03;;
7527;SDS011;3805;49.006;8.514;2023-04-03T14:50:36;3.00;;;2.80;;
7527;SDS011;3805;49.006;8.514;2023-04-03T14:53:25;2.97;;;2.67;;
7527;SDS011;3805;49.006;8.514;2023-04-03T14:56:26;3.60;;;2.97;;
7527;SDS011;3805;49.006;8.514;2023-04-03T14:59:16;3.30;;;2.67;;
7527;SDS011;3805;49.006;8.514;2023-04-03T15:02:11;2.97;;;2.70;;
7527;SDS011;3805;49.006;8.514;2023-04-03T15:05:15;3.70;;;3.40;;
7527;SDS011;3805;49.006;8.514;2023-04-03T15:08:07;3.27;;;2.97;;
7527;SDS011;3805;49.006;8.514;2023-04-03T15:11:00;5.47;;;3.33;;
7527;SDS011;3805;49.006;8.514;2023-04-03T15:13:49;3.93;;;3.13;;
7527;SDS011;3805;49.006;8.514;2023-04-03T15:16:37;3.73;;;3.43;;
7527;SDS011;3805;49.006;8.514;2023-04-03T15:19:26;3.73;;;3.13;;
7527;SDS011;3805;49.006;8.514;2023-04-03T15:22:14;3.10;;;2.90;;
7527;SDS011;3805;49.006;8.514;2023-04-03T15:25:06;2.77;;;2.40;;
7527;SDS011;3805;49.006;8.514;2023-04-03T15:27:56;3.07;;;2.80;;
7527;SDS011;3805;49.006;8.514;2023-04-03T15:30:45;2.70;;;2.50;;
7527;SDS011;3805;49.006;8.514;2023-04-03T15:33:33;3.37;;;3.17;;
7527;SDS011;3805;49.006;8.514;2023-04-03T15:36:22;3.50;;;3.10;;
7527;SDS011;3805;49.006;8.514;2023-04-03T15:39:21;2.70;;;2.50;;
7527;SDS011;3805;49.006;8.514;2023-04-03T15:42:11;3.27;;;3.00;;
7527;SDS011;3805;49.006;8.514;2023-04-03T15:45:00;3.13;;;2.83;;
7527;SDS011;3805;49.006;8.514;2023-04-03T15:47:48;4.07;;;3.23;;
7527;SDS011;3805;49.006;8.514;2023-04-03T15:50:38;3.63;;;3.30;;
7527;SDS011;3805;49.006;8.514;2023-04-03T15:53:26;3.73;;;3.20;;
7527;SDS011;3805;49.006;8.514;2023-04-03T15:56:15;3.30;;;3.00;;
7527;SDS011;3805;49.006;8.514;2023-04-03T15:59:05;3.53;;;3.23;;
7527;SDS011;3805;49.006;8.514;2023-04-03T16:01:54;6.27;;;3.30;;
7527;SDS011;3805;49.006;8.514;2023-04-03T16:04:42;3.67;;;3.37;;
7527;SDS011;3805;49.006;8.514;2023-04-03T16:07:31;3.10;;;2.90;;
7527;SDS011;3805;49.006;8.514;2023-04-03T16:10:20;4.43;;;3.37;;
7527;SDS011;3805;49.006;8.514;2023-04-03T16:13:08;4.00;;;2.63;;
7527;SDS011;3805;49.006;8.514;2023-04-03T16:15:58;5.00;;;3.00;;
7527;SDS011;3805;49.006;8.514;2023-04-03T16:18:48;4.00;;;3.00;;
7527;SDS011;3805;49.006;8.514;2023-04-03T16:21:36;3.33;;;2.97;;
7527;SDS011;3805;49.006;8.514;2023-04-03T16:24:25;4.23;;;3.53;;
7527;SDS011;3805;49.006;8.514;2023-04-03T16:27:13;4.93;;;3.47;;
7527;SDS011;3805;49.006;8.514;2023-04-03T16:30:02;3.10;;;2.90;;
7527;SDS011;3805;49.006;8.514;2023-04-03T16:32:53;3.40;;;3.10;;
7527;SDS011;3805;49.006;8.514;2023-04-03T16:35:42;4.73;;;2.93;;
7527;SDS011;3805;49.006;8.514;2023-04-03T16:38:31;3.70;;;3.40;;
7527;SDS011;3805;49.006;8.514;2023-04-03T16:41:20;4.63;;;3.43;;
7527;SDS011;3805;49.006;8.514;2023-04-03T16:44:08;3.37;;;3.10;;
7527;SDS011;3805;49.006;8.514;2023-04-03T16:46:57;4.30;;;3.63;;
7527;SDS011;3805;49.006;8.514;2023-04-03T16:49:47;4.00;;;3.70;;
7527;SDS011;3805;49.006;8.514;2023-04-03T16:52:36;3.20;;;2.90;;
7527;SDS011;3805;49.006;8.514;2023-04-03T16:55:24;3.33;;;3.00;;
7527;SDS011;3805;49.006;8.514;2023-04-03T16:58:13;3.40;;;3.10;;
7527;SDS011;3805;49.006;8.514;2023-04-03T17:01:08;4.30;;;3.87;;
7527;SDS011;3805;49.006;8.514;2023-04-03T17:03:57;3.60;;;3.30;;
7527;SDS011;3805;49.006;8.514;2023-04-03T17:06:47;3.67;;;2.60;;
7527;SDS011;3805;49.006;8.514;2023-04-03T17:09:36;3.83;;;3.53;;
7527;SDS011;3805;49.006;8.514;2023-04-03T17:12:25;4.63;;;3.40;;
7527;SDS011;3805;49.006;8.514;2023-04-03T17:15:13;10.30;;;9.40;;
7527;SDS011;3805;49.006;8.514;2023-04-03T17:18:02;3.93;;;3.53;;
7527;SDS011;3805;49.006;8.514;2023-04-03T17:20:51;5.10;;;3.23;;
7527;SDS011;3805;49.006;8.514;2023-04-03T17:23:41;7.83;;;3.40;;
7527;SDS011;3805;49.006;8.514;2023-04-03T17:26:31;2.90;;;2.60;;
7527;SDS011;3805;49.006;8.514;2023-04-03T17:29:19;3.40;;;3.20;;
7527;SDS011;3805;49.006;8.514;2023-04-03T17:32:08;4.40;;;3.30;;
7527;SDS011;3805;49.006;8.514;2023-04-03T17:34:57;3.67;;;3.37;;
7527;SDS011;3805;49.006;8.514;2023-04-03T17:37:46;3.23;;;2.93;;
7527;SDS011;3805;49.006;8.514;2023-04-03T17:40:37;3.20;;;2.40;;
7527;SDS011;3805;49.006;8.514;2023-04-03T17:43:25;3.77;;;3.03;;
7527;SDS011;3805;49.006;8.514;2023-04-03T17:46:14;3.57;;;3.27;;
7527;SDS011;3805;49.006;8.514;2023-04-03T17:49:03;3.00;;;2.70;;
7527;SDS011;3805;49.006;8.514;2023-04-03T17:51:52;3.40;;;3.20;;
7527;SDS011;3805;49.006;8.514;2023-04-03T17:54:40;2.80;;;2.60;;